createdAt,value
2023-08-15T00:02:20.773Z,98375.94
2023-08-15T00:04:47.125Z,98372.75
2023-08-15T00:07:13.498Z,98357.13
2023-08-15T00:09:39.874Z,98401.50
2023-08-15T00:12:06.551Z,98404.06
2023-08-15T00:14:33.281Z,98384.88
2023-08-15T00:16:59.666Z,98411.41
2023-08-15T00:19:26.081Z,98404.44
2023-08-15T00:21:52.504Z,98391.28
2023-08-15T00:24:19.290Z,98401.19
2023-08-15T00:26:45.659Z,98391.66
2023-08-15T00:29:12.016Z,98388.44
2023-08-15T00:31:38.366Z,98389.84
2023-08-15T00:34:04.712Z,98407.53
2023-08-15T00:36:31.449Z,98408.88
2023-08-15T00:39:02.532Z,98398.34
2023-08-15T00:41:29.126Z,98403.16
2023-08-15T00:43:55.441Z,98407.84
2023-08-15T00:46:22.471Z,98402.16
2023-08-15T00:48:48.966Z,98400.84
2023-08-15T00:51:15.740Z,98399.38
2023-08-15T00:53:42.170Z,98408.59
2023-08-15T00:56:08.977Z,98403.34
2023-08-15T00:58:35.321Z,98412.88
2023-08-15T01:01:02.128Z,98407.59
2023-08-15T01:03:28.737Z,98407.50
2023-08-15T01:05:55.935Z,98396.72
2023-08-15T01:08:22.276Z,98399.91
2023-08-15T01:10:48.638Z,98402.31
2023-08-15T01:13:21.188Z,98405.72
2023-08-15T01:15:49.836Z,98410.16
2023-08-15T01:18:19.140Z,98401.59
2023-08-15T01:20:46.749Z,98399.41
2023-08-15T01:23:14.381Z,98396.94
2023-08-15T01:25:41.521Z,98395.88
2023-08-15T01:28:12.269Z,98391.66
2023-08-15T01:30:40.320Z,98396.63
2023-08-15T01:33:15.881Z,98392.53
2023-08-15T01:35:47.654Z,98388.72
2023-08-15T01:38:19.567Z,98384.88
2023-08-15T01:40:48.631Z,98383.22
2023-08-15T01:43:16.673Z,98378.34
2023-08-15T01:45:43.143Z,98378.34
2023-08-15T01:48:09.686Z,98378.78
2023-08-15T01:50:36.090Z,98385.19
2023-08-15T01:53:02.567Z,98381.41
2023-08-15T01:55:28.963Z,98381.59
2023-08-15T01:57:55.309Z,98378.94
2023-08-15T02:00:21.646Z,98364.69
2023-08-15T02:02:47.995Z,98375.25
2023-08-15T02:05:14.911Z,98375.09
2023-08-15T02:07:41.406Z,98370.09
2023-08-15T02:10:07.965Z,98371.25
2023-08-15T02:12:34.323Z,98361.00
2023-08-15T02:15:00.745Z,98360.91
2023-08-15T02:17:27.090Z,98358.75
2023-08-15T02:19:53.431Z,98364.31
2023-08-15T02:22:19.766Z,98362.53
2023-08-15T02:24:46.127Z,98364.50
2023-08-15T02:27:12.443Z,98366.94
2023-08-15T02:29:38.771Z,98357.34
2023-08-15T02:32:05.147Z,98357.41
2023-08-15T02:34:31.514Z,98360.72
2023-08-15T02:36:58.524Z,98359.81
2023-08-15T02:39:24.842Z,98350.59
2023-08-15T02:41:51.188Z,98348.66
2023-08-15T02:44:17.532Z,98335.91
2023-08-15T02:46:43.880Z,98334.94
2023-08-15T02:49:10.237Z,98331.16
2023-08-15T02:51:36.575Z,98331.59
2023-08-15T02:54:02.969Z,98335.78
2023-08-15T02:56:29.311Z,98338.06
2023-08-15T02:58:55.799Z,98327.22
2023-08-15T03:01:22.884Z,98325.38
2023-08-15T03:03:49.265Z,98323.44
2023-08-15T03:06:15.592Z,98308.16
2023-08-15T03:08:41.916Z,98322.72
2023-08-15T03:11:08.269Z,98316.81
2023-08-15T03:13:34.625Z,98319.16
2023-08-15T03:16:01.000Z,98316.34
2023-08-15T03:18:27.322Z,98323.75
2023-08-15T03:21:01.067Z,98330.94
2023-08-15T03:23:27.471Z,98326.50
2023-08-15T03:25:54.442Z,98326.84
2023-08-15T03:28:20.852Z,98320.97
2023-08-15T03:30:47.216Z,98323.94
2023-08-15T03:33:13.604Z,98318.13
2023-08-15T03:35:50.200Z,98324.72
2023-08-15T03:38:17.441Z,98319.53
2023-08-15T03:40:47.869Z,98323.25
2023-08-15T03:43:14.727Z,98318.66
2023-08-15T03:45:41.445Z,98309.84
2023-08-15T03:48:08.518Z,98313.91
2023-08-15T03:50:35.489Z,98312.84
2023-08-15T03:53:01.858Z,98318.31
2023-08-15T03:55:29.014Z,98311.88
2023-08-15T03:57:55.384Z,98316.72
2023-08-15T04:00:22.128Z,98314.88
2023-08-15T04:02:48.801Z,98319.78
2023-08-15T04:05:15.502Z,98320.44
2023-08-15T04:07:41.896Z,98325.22
2023-08-15T04:10:08.734Z,98324.78
2023-08-15T04:12:35.198Z,98326.63
2023-08-15T04:15:01.679Z,98327.78
2023-08-15T04:17:28.080Z,98334.75
2023-08-15T04:19:54.445Z,98332.25
2023-08-15T04:22:20.825Z,98327.25
2023-08-15T04:24:47.128Z,98328.78
2023-08-15T04:27:13.500Z,98326.03
2023-08-15T04:29:40.133Z,98334.50
2023-08-15T04:32:06.494Z,98337.03
2023-08-15T04:34:32.814Z,98336.53
2023-08-15T04:36:59.146Z,98334.59
2023-08-15T04:39:25.490Z,98329.44
2023-08-15T04:41:51.855Z,98322.63
2023-08-15T04:44:18.171Z,98318.03
2023-08-15T04:46:44.504Z,98323.44
2023-08-15T04:49:10.819Z,98321.63
2023-08-15T04:51:37.170Z,98332.38
2023-08-15T04:54:03.547Z,98326.34
2023-08-15T04:56:29.903Z,98319.94
2023-08-15T04:58:56.240Z,98325.31
2023-08-15T05:01:22.642Z,98316.53
2023-08-15T05:03:49.016Z,98323.50
2023-08-15T05:06:15.358Z,98313.88
2023-08-15T05:08:41.802Z,98317.13
2023-08-15T05:11:09.527Z,98325.22
2023-08-15T05:13:35.883Z,98325.50
2023-08-15T05:16:02.246Z,98330.00
2023-08-15T05:18:28.654Z,98326.78
2023-08-15T05:20:55.019Z,98332.97
2023-08-15T05:23:21.380Z,98330.41
2023-08-15T05:25:47.769Z,98325.84
2023-08-15T05:28:14.122Z,98319.81
2023-08-15T05:30:42.087Z,98321.94
2023-08-15T05:33:08.473Z,98327.69
2023-08-15T05:35:34.964Z,98315.22
2023-08-15T05:38:01.316Z,98327.19
2023-08-15T05:40:28.039Z,98326.44
2023-08-15T05:42:54.388Z,98327.19
2023-08-15T05:45:20.775Z,98327.03
2023-08-15T05:47:47.186Z,98335.53
2023-08-15T05:50:13.559Z,98329.53
2023-08-15T05:52:39.944Z,98331.38
2023-08-15T05:55:06.532Z,98321.81
2023-08-15T05:57:33.100Z,98328.75
2023-08-15T05:59:59.409Z,98331.97
2023-08-15T06:02:26.477Z,98328.66
2023-08-15T06:04:52.804Z,98329.13
2023-08-15T06:07:19.578Z,98333.59
2023-08-15T06:09:46.219Z,98331.16
2023-08-15T06:12:12.564Z,98336.53
2023-08-15T06:14:40.336Z,98342.59
2023-08-15T06:17:06.666Z,98336.66
2023-08-15T06:19:33.004Z,98338.81
2023-08-15T06:21:59.356Z,98342.53
2023-08-15T06:24:25.694Z,98338.50
2023-08-15T06:26:52.036Z,98344.31
2023-08-15T06:29:18.426Z,98338.88
2023-08-15T06:31:44.784Z,98342.06
2023-08-15T06:34:11.126Z,98336.31
2023-08-15T06:36:37.453Z,98349.50
2023-08-15T06:39:04.257Z,98343.50
2023-08-15T06:41:31.434Z,98349.41
2023-08-15T06:43:57.835Z,98351.03
2023-08-15T06:46:24.203Z,98350.50
2023-08-15T06:48:50.606Z,98351.56
2023-08-15T06:51:16.960Z,98351.84
2023-08-15T06:53:45.426Z,98343.06
2023-08-15T06:56:12.379Z,98338.88
2023-08-15T06:58:38.822Z,98336.50
2023-08-15T07:01:07.117Z,98337.38
2023-08-15T07:03:34.716Z,98340.97
2023-08-15T07:06:01.521Z,98335.66
2023-08-15T07:08:27.888Z,98336.66
2023-08-15T07:10:54.892Z,98330.09
2023-08-15T07:13:21.224Z,98320.53
2023-08-15T07:15:47.585Z,98314.81
2023-08-15T07:18:13.986Z,98311.47
2023-08-15T07:20:40.789Z,98321.53
2023-08-15T07:23:08.670Z,98312.72
2023-08-15T07:25:38.357Z,98311.19
2023-08-15T07:28:04.840Z,98311.66
2023-08-15T07:30:31.194Z,98327.72
2023-08-15T07:32:57.772Z,98323.78
2023-08-15T07:35:24.405Z,98326.63
2023-08-15T07:37:50.754Z,98335.88
2023-08-15T07:40:20.811Z,98331.31
2023-08-15T07:42:50.728Z,98333.44
2023-08-15T07:45:17.624Z,98340.09
2023-08-15T07:47:45.092Z,98340.13
2023-08-15T07:50:19.177Z,98332.84
2023-08-15T07:52:45.950Z,98321.84
2023-08-15T07:55:12.669Z,98331.00
2023-08-15T07:57:39.108Z,98325.06
2023-08-15T08:00:05.903Z,98329.81
2023-08-15T08:02:32.271Z,98330.16
2023-08-15T08:04:59.558Z,98339.34
2023-08-15T08:07:26.699Z,98335.34
2023-08-15T08:09:53.101Z,98341.34
2023-08-15T08:12:19.824Z,98333.41
2023-08-15T08:14:56.242Z,98348.28
2023-08-15T08:17:24.133Z,98342.63
2023-08-15T08:19:50.743Z,98341.72
2023-08-15T08:24:43.372Z,98355.53
2023-08-15T08:27:09.757Z,98349.22
2023-08-15T08:29:36.139Z,98356.19
2023-08-15T08:32:02.533Z,98360.72
2023-08-15T08:34:28.877Z,98365.19
2023-08-15T08:36:55.262Z,98362.25
2023-08-15T08:39:31.766Z,98358.69
2023-08-15T08:41:58.936Z,98356.09
2023-08-15T08:44:26.178Z,98351.13
2023-08-15T08:46:52.681Z,98351.38
2023-08-15T08:49:20.521Z,98352.81
2023-08-15T08:51:47.402Z,98352.56
2023-08-15T08:54:15.503Z,98353.75
2023-08-15T08:56:43.741Z,98348.34
2023-08-15T08:59:14.144Z,98356.75
2023-08-15T09:01:40.712Z,98359.56
2023-08-15T09:04:10.047Z,98353.69
2023-08-15T09:06:36.547Z,98358.38
2023-08-15T09:09:03.014Z,98355.13
2023-08-15T09:11:36.299Z,98362.31
2023-08-15T09:14:06.088Z,98364.00
2023-08-15T09:16:32.884Z,98372.25
2023-08-15T09:19:03.456Z,98368.13
2023-08-15T09:21:30.048Z,98375.69
2023-08-15T09:23:58.057Z,98372.41
2023-08-15T09:26:24.492Z,98368.63
2023-08-15T09:28:50.960Z,98370.09
2023-08-15T09:31:17.364Z,98367.88
2023-08-15T09:33:43.737Z,98358.16
2023-08-15T09:36:10.775Z,98363.50
2023-08-15T09:38:37.725Z,98360.81
2023-08-15T09:41:04.592Z,98355.31
2023-08-15T09:43:31.341Z,98352.59
2023-08-15T09:46:00.922Z,98347.81
2023-08-15T09:48:28.754Z,98345.81
2023-08-15T09:50:56.761Z,98337.44
2023-08-15T09:53:23.700Z,98322.41
2023-08-15T09:55:50.250Z,98319.81
2023-08-15T09:58:17.911Z,98312.88
2023-08-15T10:00:45.328Z,98317.59
2023-08-15T10:03:24.978Z,98325.00
2023-08-15T10:06:01.572Z,98323.28
2023-08-15T10:08:28.378Z,98329.38
2023-08-15T10:10:55.472Z,98330.66
2023-08-15T10:13:25.106Z,98329.47
2023-08-15T10:15:52.621Z,98321.78
2023-08-15T10:18:19.049Z,98327.28
2023-08-15T10:20:49.957Z,98313.97
2023-08-15T10:23:24.044Z,98318.44
2023-08-15T10:25:50.429Z,98326.69
2023-08-15T10:28:16.755Z,98323.59
2023-08-15T10:30:51.664Z,98328.84
2023-08-15T10:33:20.096Z,98321.25
2023-08-15T10:35:55.914Z,98322.97
2023-08-15T10:38:22.406Z,98321.28
2023-08-15T10:40:49.570Z,98326.03
2023-08-15T10:43:16.844Z,98324.28
2023-08-15T10:45:44.627Z,98331.03
2023-08-15T10:48:11.491Z,98326.25
2023-08-15T10:50:43.553Z,98327.28
2023-08-15T10:53:09.924Z,98323.19
2023-08-15T10:55:37.499Z,98320.94
2023-08-15T10:58:05.231Z,98321.81
2023-08-15T11:00:32.436Z,98322.41
2023-08-15T11:02:58.925Z,98324.28
2023-08-15T11:05:25.450Z,98314.88
2023-08-15T11:07:51.897Z,98319.94
2023-08-15T11:10:18.335Z,98312.94
2023-08-15T11:12:49.023Z,98315.03
2023-08-15T11:15:18.228Z,98315.56
2023-08-15T11:17:48.153Z,98308.44
2023-08-15T11:20:14.743Z,98304.81
2023-08-15T11:22:41.606Z,98305.25
2023-08-15T11:25:11.435Z,98304.84
2023-08-15T11:27:41.949Z,98308.06
2023-08-15T11:30:08.820Z,98313.09
2023-08-15T11:32:36.721Z,98310.78
2023-08-15T11:35:03.113Z,98301.63
2023-08-15T11:37:29.453Z,98297.94
2023-08-15T11:39:56.124Z,98301.63
2023-08-15T11:42:22.718Z,98307.09
2023-08-15T11:45:01.061Z,98306.84
2023-08-15T11:47:27.447Z,98305.72
2023-08-15T11:49:54.315Z,98299.53
2023-08-15T11:52:21.108Z,98298.56
2023-08-15T11:54:47.652Z,98304.59
2023-08-15T11:57:14.053Z,98302.06
2023-08-15T11:59:41.408Z,98308.22
2023-08-15T12:02:11.113Z,98302.13
2023-08-15T12:04:38.536Z,98301.38
2023-08-15T12:07:04.865Z,98294.50
2023-08-15T12:09:32.398Z,98303.91
2023-08-15T12:11:59.755Z,98296.31
2023-08-15T12:14:27.338Z,98296.69
2023-08-15T12:16:55.229Z,98298.78
2023-08-15T12:19:23.034Z,98296.41
2023-08-15T12:21:53.277Z,98291.78
2023-08-15T12:24:19.640Z,98294.00
2023-08-15T12:26:45.995Z,98292.22
2023-08-15T12:29:13.161Z,98289.22
2023-08-15T12:31:42.248Z,98282.84
2023-08-15T12:34:08.825Z,98290.13
2023-08-15T12:36:35.174Z,98283.91
2023-08-15T12:39:01.529Z,98285.13
2023-08-15T12:41:27.885Z,98288.44
2023-08-15T12:43:55.104Z,98290.88
2023-08-15T12:46:21.492Z,98294.50
2023-08-15T12:48:47.874Z,98291.38
2023-08-15T12:51:15.488Z,98286.69
2023-08-15T12:53:41.881Z,98286.38
2023-08-15T12:56:08.247Z,98280.78
2023-08-15T12:58:34.642Z,98286.38
2023-08-15T13:01:01.958Z,98290.53
2023-08-15T13:03:28.519Z,98286.13
2023-08-15T13:05:54.933Z,98268.88
2023-08-15T13:08:22.306Z,98280.81
2023-08-15T13:10:48.924Z,98277.97
2023-08-15T13:13:15.255Z,98275.84
2023-08-15T13:15:41.601Z,98270.03
2023-08-15T13:18:08.115Z,98276.47
2023-08-15T13:20:34.503Z,98269.31
2023-08-15T13:23:00.847Z,98269.84
2023-08-15T13:25:27.251Z,98269.06
2023-08-15T13:27:53.577Z,98261.06
2023-08-15T13:30:19.947Z,98253.16
2023-08-15T13:32:46.322Z,98262.81
2023-08-15T13:35:12.687Z,98264.47
2023-08-15T13:37:39.047Z,98262.63
2023-08-15T13:40:07.054Z,98252.28
2023-08-15T13:42:38.718Z,98253.66
2023-08-15T13:45:08.672Z,98247.94
2023-08-15T13:47:37.134Z,98239.06
2023-08-15T13:50:04.172Z,98245.88
2023-08-15T13:52:30.601Z,98242.66
2023-08-15T13:54:56.930Z,98242.50
2023-08-15T13:57:23.537Z,98229.75
2023-08-15T13:59:50.168Z,98226.16
2023-08-15T14:02:16.592Z,98221.22
2023-08-15T14:04:43.046Z,98221.72
2023-08-15T14:07:09.860Z,98213.91
2023-08-15T14:09:36.215Z,98220.03
2023-08-15T14:12:02.598Z,98213.91
2023-08-15T14:14:29.014Z,98221.78
2023-08-15T14:16:55.742Z,98218.66
2023-08-15T14:19:22.159Z,98217.94
2023-08-15T14:21:48.526Z,98214.84
2023-08-15T14:24:15.131Z,98223.63
2023-08-15T14:26:42.250Z,98225.03
2023-08-15T14:29:08.624Z,98226.56
2023-08-15T14:31:34.991Z,98233.41
2023-08-15T14:34:01.509Z,98226.34
2023-08-15T14:36:27.861Z,98229.91
2023-08-15T14:38:54.253Z,98225.00
2023-08-15T14:41:20.591Z,98225.53
2023-08-15T14:43:46.957Z,98229.03
2023-08-15T14:46:13.413Z,98217.69
2023-08-15T14:48:39.815Z,98214.97
2023-08-15T14:51:07.077Z,98219.25
2023-08-15T14:53:33.420Z,98211.41
2023-08-15T14:56:00.057Z,98224.91
2023-08-15T14:58:26.497Z,98213.75
2023-08-15T15:00:52.975Z,98203.69
2023-08-15T15:03:19.501Z,98202.44
2023-08-15T15:05:46.053Z,98205.63
2023-08-15T15:08:12.472Z,98200.66
2023-08-15T15:10:38.809Z,98204.78
2023-08-15T15:13:05.146Z,98208.69
2023-08-15T15:15:51.455Z,98218.56
2023-08-15T15:18:18.221Z,98223.34
2023-08-15T15:20:44.637Z,98220.25
2023-08-15T15:23:11.069Z,98215.50
2023-08-15T15:25:37.436Z,98218.69
2023-08-15T15:28:03.910Z,98223.94
2023-08-15T15:30:30.273Z,98235.63
2023-08-15T15:32:57.337Z,98239.16
2023-08-15T15:35:23.720Z,98241.78
2023-08-15T15:37:50.053Z,98244.19
2023-08-15T15:40:16.531Z,98240.59
2023-08-15T15:42:42.937Z,98241.09
2023-08-15T15:45:09.428Z,98243.94
2023-08-15T15:47:35.904Z,98248.47
2023-08-15T15:50:02.389Z,98248.97
2023-08-15T15:52:28.893Z,98261.19
2023-08-15T15:54:55.267Z,98261.75
2023-08-15T15:57:21.694Z,98277.53
2023-08-15T15:59:48.055Z,98282.53
2023-08-15T16:02:14.474Z,98289.75
2023-08-15T16:04:40.898Z,98293.78
2023-08-15T16:07:08.496Z,98300.97
2023-08-15T16:09:36.748Z,98296.19
2023-08-15T16:12:03.167Z,98304.50
2023-08-15T16:14:29.722Z,98310.00
2023-08-15T16:16:56.074Z,98315.22
2023-08-15T16:19:22.456Z,98318.28
2023-08-15T16:21:49.289Z,98310.41
2023-08-15T16:24:15.722Z,98320.88
2023-08-15T16:26:42.174Z,98335.41
2023-08-15T16:29:08.552Z,98337.97
2023-08-15T16:31:35.051Z,98337.69
2023-08-15T16:34:01.498Z,98345.06
2023-08-15T16:36:27.849Z,98350.78
2023-08-15T16:38:54.195Z,98363.63
2023-08-15T16:41:20.523Z,98367.59
2023-08-15T16:43:47.233Z,98373.75
2023-08-15T16:46:14.497Z,98375.81
2023-08-15T16:48:40.896Z,98374.53
2023-08-15T16:51:07.615Z,98381.16
2023-08-15T16:53:33.989Z,98378.69
2023-08-15T16:56:00.332Z,98381.53
2023-08-15T16:58:26.796Z,98384.59
2023-08-15T17:00:53.300Z,98386.00
2023-08-15T17:03:19.933Z,98385.47
2023-08-15T17:05:46.530Z,98382.59
2023-08-15T17:08:13.279Z,98383.47
2023-08-15T17:10:39.658Z,98379.09
2023-08-15T17:13:06.008Z,98385.94
2023-08-15T17:15:33.110Z,98386.19
2023-08-15T17:17:59.571Z,98386.16
2023-08-15T17:20:25.989Z,98382.94
2023-08-15T17:22:52.324Z,98394.66
2023-08-15T17:25:18.694Z,98388.25
2023-08-15T17:27:45.036Z,98392.63
2023-08-15T17:30:11.769Z,98390.81
2023-08-15T17:32:38.361Z,98394.84
2023-08-15T17:35:04.907Z,98401.69
2023-08-15T17:37:31.245Z,98396.03
2023-08-15T17:39:57.603Z,98397.47
2023-08-15T17:42:24.480Z,98398.69
2023-08-15T17:44:51.344Z,98395.66
2023-08-15T17:47:17.704Z,98402.66
2023-08-15T17:49:44.124Z,98395.34
2023-08-15T17:52:10.484Z,98400.50
2023-08-15T17:54:36.881Z,98401.94
2023-08-15T17:57:03.321Z,98403.44
2023-08-15T17:59:29.853Z,98393.53
2023-08-15T18:01:57.595Z,98395.28
2023-08-15T18:04:25.823Z,98390.94
2023-08-15T18:06:52.223Z,98393.88
2023-08-15T18:09:19.976Z,98397.31
2023-08-15T18:11:48.129Z,98401.09
2023-08-15T18:14:15.581Z,98388.75
2023-08-15T18:16:44.326Z,98381.53
2023-08-15T18:19:10.945Z,98383.44
2023-08-15T18:21:37.387Z,98380.41
2023-08-15T18:24:07.447Z,98380.56
2023-08-15T18:26:36.331Z,98385.97
2023-08-15T18:29:05.177Z,98396.97
2023-08-15T18:31:33.998Z,98390.13
2023-08-15T18:34:05.379Z,98390.84
2023-08-15T18:36:32.271Z,98377.06
2023-08-15T18:39:00.047Z,98383.00
2023-08-15T18:41:28.434Z,98382.50
2023-08-15T18:43:57.274Z,98376.47
2023-08-15T18:46:28.333Z,98381.84
2023-08-15T18:48:56.049Z,98379.31
2023-08-15T18:51:22.444Z,98391.03
2023-08-15T18:53:48.776Z,98388.16
2023-08-15T18:56:15.152Z,98390.56
2023-08-15T18:58:42.874Z,98397.56
2023-08-15T19:01:13.283Z,98400.50
2023-08-15T19:03:39.935Z,98400.06
2023-08-15T19:06:07.051Z,98398.69
2023-08-15T19:08:36.875Z,98403.69
2023-08-15T19:11:03.382Z,98407.47
2023-08-15T19:13:29.945Z,98407.00
2023-08-15T19:15:56.315Z,98403.09
2023-08-15T19:18:22.771Z,98403.16
2023-08-15T19:20:49.291Z,98397.53
2023-08-15T19:23:15.663Z,98403.28
2023-08-15T19:25:42.097Z,98403.78
2023-08-15T19:28:08.429Z,98397.47
2023-08-15T19:30:37.196Z,98404.72
2023-08-15T19:33:03.608Z,98410.66
2023-08-15T19:35:30.754Z,98409.19
2023-08-15T19:37:57.088Z,98407.72
2023-08-15T19:40:23.447Z,98412.50
2023-08-15T19:42:50.776Z,98431.31
2023-08-15T19:45:17.309Z,98436.78
2023-08-15T19:47:43.781Z,98436.78
2023-08-15T19:50:10.466Z,98451.00
2023-08-15T19:52:36.841Z,98451.88
2023-08-15T19:55:04.440Z,98455.53
2023-08-15T19:57:31.113Z,98459.16
2023-08-15T19:59:58.258Z,98448.72
2023-08-15T20:02:25.290Z,98445.88
2023-08-15T20:04:51.938Z,98444.56
2023-08-15T20:07:18.875Z,98448.16
2023-08-15T20:09:55.060Z,98453.50
2023-08-15T20:12:30.813Z,98451.81
2023-08-15T20:14:57.171Z,98448.19
2023-08-15T20:17:25.583Z,98447.91
2023-08-15T20:19:57.049Z,98444.03
2023-08-15T20:22:26.030Z,98438.94
2023-08-15T20:24:54.423Z,98441.56
2023-08-15T20:27:22.152Z,98435.91
2023-08-15T20:29:52.052Z,98433.19
2023-08-15T20:32:21.556Z,98433.44
2023-08-15T20:34:48.493Z,98437.81
2023-08-15T20:37:18.074Z,98434.94
2023-08-15T20:39:45.724Z,98438.44
2023-08-15T20:42:14.344Z,98437.53
2023-08-15T20:44:45.171Z,98443.94
2023-08-15T20:47:13.101Z,98438.97
2023-08-15T20:49:43.052Z,98435.09
2023-08-15T20:52:11.127Z,98438.56
2023-08-15T20:54:38.853Z,98445.63
2023-08-15T20:57:08.508Z,98443.75
2023-08-15T20:59:38.994Z,98433.34
2023-08-15T21:02:10.238Z,98429.03
2023-08-15T21:04:45.598Z,98428.00
2023-08-15T21:07:18.032Z,98434.78
2023-08-15T21:09:47.296Z,98447.94
2023-08-15T21:12:14.884Z,98450.53
2023-08-15T21:14:41.260Z,98449.66
2023-08-15T21:17:07.595Z,98445.47
2023-08-15T21:19:34.031Z,98451.97
2023-08-15T21:22:00.411Z,98461.34
2023-08-15T21:24:26.794Z,98455.56
2023-08-15T21:26:53.159Z,98459.56
2023-08-15T21:29:19.503Z,98464.47
2023-08-15T21:31:45.838Z,98473.72
2023-08-15T21:34:12.222Z,98471.13
2023-08-15T21:36:38.579Z,98469.69
2023-08-15T21:39:05.043Z,98469.84
2023-08-15T21:41:31.382Z,98482.41
2023-08-15T21:43:57.767Z,98499.44
2023-08-15T21:46:24.170Z,98501.31
2023-08-15T21:48:50.506Z,98503.63
2023-08-15T21:51:16.856Z,98506.78
2023-08-15T21:53:43.177Z,98509.13
2023-08-15T21:56:09.827Z,98509.38
2023-08-15T21:58:36.171Z,98504.59
2023-08-15T22:01:03.072Z,98504.72
2023-08-15T22:03:29.544Z,98503.84
2023-08-15T22:05:55.946Z,98511.25
2023-08-15T22:08:22.367Z,98501.38
2023-08-15T22:10:48.713Z,98504.84
2023-08-15T22:13:15.124Z,98505.06
2023-08-15T22:15:41.645Z,98506.53
2023-08-15T22:18:19.364Z,98520.50
2023-08-15T22:20:47.278Z,98519.06
2023-08-15T22:23:13.643Z,98520.59
2023-08-15T22:25:47.032Z,98529.38
2023-08-15T22:28:13.469Z,98532.41
2023-08-15T22:30:39.910Z,98520.38
2023-08-15T22:33:06.344Z,98515.91
2023-08-15T22:35:39.400Z,98523.41
2023-08-15T22:38:06.058Z,98531.75
2023-08-15T22:40:32.579Z,98534.31
2023-08-15T22:42:59.163Z,98535.28
2023-08-15T22:45:25.540Z,98537.25
2023-08-15T22:47:51.972Z,98547.88
2023-08-15T22:50:18.378Z,98545.91
2023-08-15T22:52:44.717Z,98543.44
2023-08-15T22:55:11.064Z,98549.75
2023-08-15T22:57:37.391Z,98549.88
2023-08-15T23:00:04.626Z,98556.53
2023-08-15T23:02:31.021Z,98558.09
2023-08-15T23:04:57.433Z,98556.78
2023-08-15T23:07:24.136Z,98556.03
2023-08-15T23:09:50.628Z,98563.84
2023-08-15T23:12:17.616Z,98566.63
2023-08-15T23:14:43.950Z,98561.97
2023-08-15T23:17:10.277Z,98564.66
2023-08-15T23:19:36.864Z,98558.22
2023-08-15T23:22:03.695Z,98558.88
2023-08-15T23:24:30.127Z,98561.56
2023-08-15T23:26:56.795Z,98560.66
2023-08-15T23:29:23.292Z,98563.03
2023-08-15T23:31:49.641Z,98565.31
2023-08-15T23:34:15.996Z,98569.47
2023-08-15T23:36:42.331Z,98569.06
2023-08-15T23:39:09.104Z,98564.69
2023-08-15T23:41:35.469Z,98559.41
2023-08-15T23:44:01.831Z,98559.81
2023-08-15T23:46:28.761Z,98557.09
2023-08-15T23:48:55.187Z,98565.75
2023-08-15T23:51:21.566Z,98571.63
2023-08-15T23:53:48.618Z,98557.13
2023-08-15T23:56:16.147Z,98559.31
2023-08-15T23:58:43.164Z,98561.47
